Rockfall, Connecticut
Current Conditions -  °F | °C
As of 2:00 PM on Wednesday 26 Nov 2014 (Local Time) from KMMK Reporting Station
Light Snow Light Snow  
Wind Chill: 26°   Ceiling: 700
Heat Index: 33°   Visibility: 1mi
Dew Point: 31°   Wind: 8mph
Humidity: 92%   Direction: 10°N
Pressure: 30.01"   Gusts: 16mph
Location:  41.53°N, 72.7°W
Report Text: KMMK 261900Z AUTO 01007G14KT 340V050 1SM -SN BR BKN007 OVC012 01/M01 A3001 RMK AO2 P0001 T00061006 TSNO
Loading
Personal Weather Stations






























Interactive Weather Map New forecast layout! Learn more

10-Day Weather Forecast

Advertisements
Track Severe Weather on mobile